createdAt,value
2018-04-26T00:00:29.019Z,95.50
2018-04-26T00:02:55.572Z,95.90
2018-04-26T00:05:22.831Z,96.50
2018-04-26T00:07:49.373Z,96.50
2018-04-26T00:10:16.605Z,97.00
2018-04-26T00:12:43.140Z,96.90
2018-04-26T00:15:09.699Z,97.20
2018-04-26T00:17:37.052Z,97.60
2018-04-26T00:20:04.316Z,97.80
2018-04-26T00:22:30.830Z,97.80
2018-04-26T00:24:57.361Z,97.80
2018-04-26T00:27:23.887Z,97.70
2018-04-26T00:29:50.373Z,98.00
2018-04-26T00:32:16.927Z,98.10
2018-04-26T00:34:43.483Z,98.40
2018-04-26T00:37:09.976Z,98.50
2018-04-26T00:39:37.265Z,99.40
2018-04-26T00:42:03.793Z,99.20
2018-04-26T00:44:30.296Z,99.40
2018-04-26T00:46:57.585Z,99.90
2018-04-26T00:49:24.834Z,99.90
2018-04-26T00:52:00.499Z,99.90
2018-04-26T00:54:27.014Z,99.90
2018-04-26T00:56:53.526Z,99.90
2018-04-26T00:59:20.835Z,99.90
2018-04-26T01:01:47.322Z,99.90
2018-04-26T01:04:13.890Z,99.90
2018-04-26T01:06:40.464Z,99.90
2018-04-26T01:09:06.975Z,99.90
2018-04-26T01:11:33.582Z,99.90
2018-04-26T01:14:00.069Z,99.90
2018-04-26T01:16:26.629Z,99.90
2018-04-26T01:18:53.159Z,99.90
2018-04-26T01:21:19.647Z,99.90
2018-04-26T01:23:46.151Z,99.90
2018-04-26T01:26:13.401Z,99.90
2018-04-26T01:28:40.707Z,99.90
2018-04-26T01:31:07.188Z,99.90
2018-04-26T01:33:34.437Z,99.90
2018-04-26T01:36:00.940Z,99.90
2018-04-26T01:38:27.500Z,99.90
2018-04-26T01:40:55.644Z,99.90
2018-04-26T01:43:22.156Z,99.90
2018-04-26T01:45:48.770Z,99.90
2018-04-26T01:48:17.179Z,99.90
2018-04-26T01:50:43.946Z,99.90
2018-04-26T01:53:10.601Z,99.90
2018-04-26T01:55:37.247Z,99.90
2018-04-26T01:58:04.000Z,99.90
2018-04-26T02:00:30.741Z,99.90
2018-04-26T02:02:58.166Z,99.90
2018-04-26T02:05:24.886Z,99.90
2018-04-26T02:07:51.514Z,99.90
2018-04-26T02:10:18.207Z,99.90
2018-04-26T02:12:45.682Z,99.90
2018-04-26T02:15:12.351Z,99.90
2018-04-26T02:17:39.099Z,99.90
2018-04-26T02:20:05.738Z,99.90
2018-04-26T02:22:32.512Z,99.90
2018-04-26T02:24:59.943Z,99.90
2018-04-26T02:27:26.585Z,99.90
2018-04-26T02:29:53.278Z,99.90
2018-04-26T02:32:20.665Z,99.90
2018-04-26T02:34:47.302Z,99.90
2018-04-26T02:37:13.947Z,99.90
2018-04-26T02:39:40.584Z,99.80
2018-04-26T02:42:07.206Z,99.90
2018-04-26T02:44:34.619Z,99.90
2018-04-26T02:47:01.228Z,99.90
2018-04-26T02:49:27.835Z,99.90
2018-04-26T02:51:54.521Z,99.90
2018-04-26T02:54:21.165Z,99.90
2018-04-26T02:56:47.912Z,99.90
2018-04-26T02:59:14.539Z,99.90
2018-04-26T03:01:41.171Z,99.90
2018-04-26T03:04:07.963Z,99.90
2018-04-26T03:06:35.333Z,99.90
2018-04-26T03:09:06.671Z,99.90
2018-04-26T03:11:33.370Z,99.90
2018-04-26T03:14:00.029Z,99.90
2018-04-26T03:16:27.416Z,99.90
2018-04-26T03:18:54.129Z,99.90
2018-04-26T03:21:21.604Z,99.90
2018-04-26T03:23:49.026Z,99.90
2018-04-26T03:26:15.774Z,99.90
2018-04-26T03:28:42.427Z,99.90
2018-04-26T03:31:09.217Z,99.90
2018-04-26T03:33:36.831Z,99.90
2018-04-26T03:36:03.661Z,99.90
2018-04-26T03:38:31.451Z,99.90
2018-04-26T03:40:58.799Z,99.90
2018-04-26T03:43:30.320Z,99.90
2018-04-26T03:45:56.972Z,99.90
2018-04-26T03:48:23.663Z,99.90
2018-04-26T03:50:50.368Z,99.90
2018-04-26T03:53:37.458Z,99.90
2018-04-26T03:56:04.118Z,99.90
2018-04-26T03:58:30.829Z,99.90
2018-04-26T04:01:09.695Z,99.90
2018-04-26T04:03:56.519Z,99.90
2018-04-26T04:06:23.901Z,99.90
2018-04-26T04:08:54.482Z,99.90
2018-04-26T04:11:21.113Z,99.90
2018-04-26T04:13:56.001Z,99.90
2018-04-26T04:16:22.663Z,99.90
2018-04-26T04:18:49.345Z,99.90
2018-04-26T04:21:16.764Z,99.90
2018-04-26T04:23:49.268Z,99.90
2018-04-26T04:26:39.573Z,99.90
2018-04-26T04:29:18.400Z,99.90
2018-04-26T04:31:49.713Z,99.90
2018-04-26T04:34:20.261Z,99.90
2018-04-26T04:36:59.237Z,99.90
2018-04-26T04:39:26.611Z,99.90
2018-04-26T04:41:53.268Z,99.90
2018-04-26T04:44:21.023Z,99.90
2018-04-26T04:46:47.724Z,99.90
2018-04-26T04:49:14.327Z,99.90
2018-04-26T04:51:41.004Z,99.90
2018-04-26T04:54:07.702Z,99.90
2018-04-26T04:56:34.330Z,99.90
2018-04-26T04:59:00.988Z,99.90
2018-04-26T05:01:27.640Z,99.90
2018-04-26T05:03:54.287Z,99.90
2018-04-26T05:06:20.984Z,99.90
2018-04-26T05:08:47.614Z,99.90
2018-04-26T05:11:14.317Z,99.90
2018-04-26T05:13:41.771Z,99.90
2018-04-26T05:16:09.237Z,99.90
2018-04-26T05:18:35.961Z,99.90
2018-04-26T05:21:03.389Z,99.90
2018-04-26T05:23:30.027Z,99.90
2018-04-26T05:25:56.929Z,99.90
2018-04-26T05:28:23.586Z,99.90
2018-04-26T05:30:50.495Z,99.90
2018-04-26T05:33:17.253Z,99.90
2018-04-26T05:35:44.093Z,99.90
2018-04-26T05:38:10.756Z,99.90
2018-04-26T05:40:41.401Z,99.90
2018-04-26T05:43:08.787Z,99.90
2018-04-26T05:45:35.428Z,99.90
2018-04-26T05:48:02.101Z,99.90
2018-04-26T05:50:28.773Z,99.90
2018-04-26T05:52:55.482Z,99.90
2018-04-26T05:55:22.085Z,99.90
2018-04-26T05:57:48.806Z,99.90
2018-04-26T06:00:15.442Z,99.90
2018-04-26T06:02:42.100Z,99.90
2018-04-26T06:05:08.757Z,99.90
2018-04-26T06:07:35.720Z,99.90
2018-04-26T06:10:02.409Z,99.90
2018-04-26T06:12:29.071Z,99.90
2018-04-26T06:14:56.488Z,99.90
2018-04-26T06:17:23.157Z,99.90
2018-04-26T06:19:49.817Z,99.40
2018-04-26T06:22:16.545Z,99.30
2018-04-26T06:24:43.187Z,99.40
2018-04-26T06:27:09.857Z,98.60
2018-04-26T06:29:36.678Z,98.00
2018-04-26T06:32:04.030Z,96.00
2018-04-26T06:34:30.689Z,95.70
2018-04-26T06:36:57.399Z,94.90
2018-04-26T06:39:24.765Z,93.40
2018-04-26T06:41:51.349Z,93.30
2018-04-26T06:44:18.688Z,91.30
2018-04-26T06:46:46.100Z,91.90
2018-04-26T06:49:12.693Z,91.90
2018-04-26T06:51:39.359Z,91.50
2018-04-26T06:54:06.078Z,90.40
2018-04-26T06:56:32.754Z,90.70
2018-04-26T06:58:59.394Z,89.20
2018-04-26T07:01:26.049Z,90.10
2018-04-26T07:03:52.768Z,91.40
2018-04-26T07:06:19.416Z,90.10
2018-04-26T07:08:46.716Z,88.90
2018-04-26T07:11:13.457Z,85.10
2018-04-26T07:13:41.113Z,82.20
2018-04-26T07:16:07.783Z,82.20
2018-04-26T07:18:34.410Z,78.90
2018-04-26T07:21:01.093Z,77.90
2018-04-26T07:23:27.863Z,77.10
2018-04-26T07:25:55.290Z,76.50
2018-04-26T07:28:21.939Z,76.20
2018-04-26T07:30:48.574Z,76.00
2018-04-26T07:33:15.234Z,73.10
2018-04-26T07:35:41.889Z,76.80
2018-04-26T07:38:09.294Z,75.10
2018-04-26T07:40:35.995Z,75.10
2018-04-26T07:43:03.421Z,77.10
2018-04-26T07:45:30.160Z,77.00
2018-04-26T07:47:56.812Z,72.90
2018-04-26T07:50:24.499Z,71.80
2018-04-26T07:52:51.887Z,72.70
2018-04-26T07:55:18.525Z,72.70
2018-04-26T07:57:45.164Z,74.80
2018-04-26T08:00:11.876Z,76.90
2018-04-26T08:02:39.261Z,75.30
2018-04-26T08:05:05.906Z,75.30
2018-04-26T08:07:32.549Z,77.10
2018-04-26T08:10:00.032Z,77.30
2018-04-26T08:12:26.693Z,77.30
2018-04-26T08:14:53.422Z,79.70
2018-04-26T08:17:20.804Z,79.80
2018-04-26T08:19:48.243Z,81.80
2018-04-26T08:22:15.674Z,78.60
2018-04-26T08:24:42.398Z,78.60
2018-04-26T08:27:09.071Z,81.40
2018-04-26T08:29:35.701Z,78.00
2018-04-26T08:32:02.452Z,78.00
2018-04-26T08:34:29.222Z,79.50
2018-04-26T08:36:56.717Z,80.40
2018-04-26T08:39:24.134Z,79.10
2018-04-26T08:41:51.598Z,79.30
2018-04-26T08:44:19.005Z,82.00
2018-04-26T08:46:45.646Z,81.90
2018-04-26T08:49:12.305Z,83.70
2018-04-26T08:51:38.913Z,82.60
2018-04-26T08:54:05.606Z,83.10
2018-04-26T08:56:33.007Z,81.20
2018-04-26T08:58:59.658Z,81.80
2018-04-26T09:01:26.325Z,83.10
2018-04-26T09:03:52.970Z,82.60
2018-04-26T09:06:20.337Z,83.80
2018-04-26T09:08:47.779Z,83.40
2018-04-26T09:11:14.540Z,83.20
2018-04-26T09:13:41.335Z,81.50
2018-04-26T09:16:08.010Z,82.10
2018-04-26T09:18:35.545Z,81.80
2018-04-26T09:21:02.323Z,81.60
2018-04-26T09:23:29.665Z,81.40
2018-04-26T09:25:56.393Z,81.30
2018-04-26T09:28:24.560Z,80.70
2018-04-26T09:30:51.233Z,80.70
2018-04-26T09:33:18.694Z,85.80
2018-04-26T09:35:46.060Z,80.90
2018-04-26T09:38:12.689Z,80.90
2018-04-26T09:40:40.146Z,81.40
2018-04-26T09:43:07.569Z,80.70
2018-04-26T09:45:34.349Z,80.50
2018-04-26T09:48:01.878Z,75.60
2018-04-26T09:50:28.544Z,75.60
2018-04-26T09:52:55.966Z,67.80
2018-04-26T09:55:22.566Z,67.60
2018-04-26T09:57:49.210Z,61.10
2018-04-26T10:00:22.069Z,59.50
2018-04-26T10:02:49.517Z,65.30
2018-04-26T10:05:16.915Z,66.40
2018-04-26T10:07:43.607Z,66.40
2018-04-26T10:10:10.258Z,67.70
2018-04-26T10:12:36.955Z,68.50
2018-04-26T10:15:03.689Z,68.60
2018-04-26T10:17:30.249Z,63.20
2018-04-26T10:19:56.869Z,65.50
2018-04-26T10:22:23.529Z,64.30
2018-04-26T10:24:50.165Z,62.70
2018-04-26T10:27:16.778Z,59.70
2018-04-26T10:29:43.508Z,57.30
2018-04-26T10:32:10.147Z,55.00
2018-04-26T10:34:36.846Z,54.50
2018-04-26T10:37:04.312Z,53.50
2018-04-26T10:39:31.745Z,52.60
2018-04-26T10:41:58.414Z,51.90
2018-04-26T10:44:25.959Z,53.00
2018-04-26T10:46:53.305Z,54.00
2018-04-26T10:49:19.948Z,53.90
2018-04-26T10:51:46.705Z,52.30
2018-04-26T10:54:13.405Z,53.50
2018-04-26T10:56:40.053Z,52.90
2018-04-26T10:59:06.710Z,53.70
2018-04-26T11:01:34.191Z,49.30
2018-04-26T11:04:00.865Z,49.20
2018-04-26T11:06:27.512Z,46.30
2018-04-26T11:08:54.961Z,47.90
2018-04-26T11:11:21.674Z,47.70
2018-04-26T11:13:48.463Z,47.40
2018-04-26T11:16:16.684Z,48.90
2018-04-26T11:18:44.154Z,49.70
2018-04-26T11:21:10.838Z,49.60
2018-04-26T11:23:37.598Z,48.10
2018-04-26T11:26:05.049Z,53.80
2018-04-26T11:28:35.749Z,54.00
2018-04-26T11:31:02.367Z,46.10
2018-04-26T11:33:29.049Z,48.10
2018-04-26T11:35:55.803Z,48.40
2018-04-26T11:38:22.390Z,49.00
2018-04-26T11:40:49.007Z,48.90
2018-04-26T11:43:16.414Z,49.70
2018-04-26T11:45:43.131Z,49.70
2018-04-26T11:48:09.805Z,45.90
2018-04-26T11:50:36.486Z,46.20
2018-04-26T11:53:04.013Z,42.80
2018-04-26T11:55:31.458Z,42.10
2018-04-26T11:57:58.145Z,42.20
2018-04-26T12:00:24.821Z,41.00
2018-04-26T12:02:51.495Z,41.60
2018-04-26T12:05:18.151Z,42.50
2018-04-26T12:07:45.581Z,37.70
2018-04-26T12:10:12.329Z,37.70
2018-04-26T12:12:39.718Z,37.50
2018-04-26T12:15:07.096Z,40.70
2018-04-26T12:17:33.789Z,40.70
2018-04-26T12:20:00.571Z,40.60
2018-04-26T12:22:27.205Z,41.20
2018-04-26T12:24:53.820Z,37.00
2018-04-26T12:27:21.259Z,35.00
2018-04-26T12:29:47.905Z,35.00
2018-04-26T12:32:14.637Z,38.20
2018-04-26T12:34:41.389Z,39.00
2018-04-26T12:37:08.027Z,41.90
2018-04-26T12:39:34.802Z,43.90
2018-04-26T12:42:01.572Z,42.00
2018-04-26T12:44:32.329Z,43.20
2018-04-26T12:46:59.067Z,44.20
2018-04-26T12:49:25.776Z,41.40
2018-04-26T12:51:52.406Z,41.50
2018-04-26T12:54:19.070Z,39.40
2018-04-26T12:56:45.780Z,38.30
2018-04-26T12:59:13.221Z,33.70
2018-04-26T13:01:39.855Z,33.60
2018-04-26T13:04:06.485Z,35.80
2018-04-26T13:06:33.288Z,37.50
2018-04-26T13:08:59.996Z,35.30
2018-04-26T13:11:26.674Z,34.10
2018-04-26T13:13:53.365Z,33.60
2018-04-26T13:16:20.022Z,35.60
2018-04-26T13:18:46.723Z,36.50
2018-04-26T13:21:13.487Z,33.40
2018-04-26T13:23:40.050Z,31.10
2018-04-26T13:26:06.788Z,36.30
2018-04-26T13:28:33.492Z,34.80
2018-04-26T13:31:00.898Z,32.20
2018-04-26T13:33:27.545Z,32.10
2018-04-26T13:35:54.359Z,30.80
2018-04-26T13:38:21.762Z,31.10
2018-04-26T13:40:48.397Z,31.10
2018-04-26T13:43:15.032Z,33.80
2018-04-26T13:45:41.723Z,32.50
2018-04-26T13:48:09.186Z,31.00
2018-04-26T13:50:35.889Z,31.70
2018-04-26T13:53:02.706Z,30.70
2018-04-26T13:55:29.337Z,32.50
2018-04-26T13:57:55.977Z,32.50
2018-04-26T14:00:22.676Z,36.10
2018-04-26T14:02:49.434Z,34.30
2018-04-26T14:05:16.090Z,32.50
2018-04-26T14:07:42.746Z,31.30
2018-04-26T14:10:09.579Z,32.10
2018-04-26T14:12:36.361Z,31.40
2018-04-26T14:15:05.280Z,31.60
2018-04-26T14:17:32.776Z,32.90
2018-04-26T14:19:59.452Z,32.30
2018-04-26T14:22:26.217Z,33.70
2018-04-26T14:24:53.888Z,31.30
2018-04-26T14:27:20.524Z,30.80
2018-04-26T14:29:47.973Z,32.40
2018-04-26T14:32:14.612Z,32.40
2018-04-26T14:34:50.149Z,33.70
2018-04-26T14:37:16.951Z,33.70
2018-04-26T14:39:43.586Z,33.40
2018-04-26T14:42:10.288Z,33.00
2018-04-26T14:44:38.662Z,35.20
2018-04-26T14:47:05.266Z,35.20
2018-04-26T14:49:31.971Z,33.60
2018-04-26T14:51:58.643Z,34.50
2018-04-26T14:54:25.376Z,35.30
2018-04-26T14:56:52.719Z,35.40
2018-04-26T14:59:19.539Z,35.50
2018-04-26T15:01:46.176Z,36.40
2018-04-26T15:04:13.166Z,35.90
2018-04-26T15:06:41.890Z,36.60
2018-04-26T15:09:09.292Z,36.60
2018-04-26T15:11:36.012Z,37.10
2018-04-26T15:14:03.390Z,38.80
2018-04-26T15:16:30.047Z,38.80
2018-04-26T15:19:19.423Z,35.90
2018-04-26T15:21:46.109Z,34.20
2018-04-26T15:24:13.492Z,35.20
2018-04-26T15:26:40.182Z,35.10
2018-04-26T15:29:06.848Z,33.40
2018-04-26T15:31:34.204Z,32.60
2018-04-26T15:34:01.614Z,35.70
2018-04-26T15:36:28.270Z,35.70
2018-04-26T15:38:55.681Z,35.40
2018-04-26T15:41:23.410Z,34.70
2018-04-26T15:43:50.138Z,38.60
2018-04-26T15:46:16.774Z,36.50
2018-04-26T15:48:43.469Z,34.80
2018-04-26T15:51:10.193Z,34.30
2018-04-26T15:53:49.917Z,38.10
2018-04-26T15:56:29.605Z,35.80
2018-04-26T16:05:27.186Z,38.10
2018-04-26T16:08:12.953Z,40.50
2018-04-26T16:10:58.011Z,40.50
2018-04-26T16:13:43.220Z,40.10
2018-04-26T16:16:29.069Z,42.00
2018-04-26T16:19:11.723Z,42.00
2018-04-26T16:25:35.504Z,40.20
2018-04-26T16:28:20.699Z,42.60
2018-04-26T16:34:11.892Z,38.20
2018-04-26T16:36:50.982Z,39.10
2018-04-26T16:39:17.576Z,39.10
2018-04-26T16:41:44.205Z,38.80
2018-04-26T16:44:10.823Z,38.80
2018-04-26T16:46:37.450Z,40.30
2018-04-26T16:49:04.103Z,42.10
2018-04-26T16:51:30.692Z,42.40
2018-04-26T16:53:57.505Z,40.00
2018-04-26T16:56:24.168Z,40.30
2018-04-26T16:58:50.869Z,41.80
2018-04-26T17:01:17.414Z,41.60
2018-04-26T17:03:44.108Z,42.40
2018-04-26T17:06:10.908Z,43.00
2018-04-26T17:08:37.638Z,45.00
2018-04-26T17:11:04.286Z,45.70
2018-04-26T17:13:31.679Z,42.70
2018-04-26T17:15:58.293Z,42.70
2018-04-26T17:18:24.933Z,43.20
2018-04-26T17:20:51.696Z,45.50
2018-04-26T17:23:20.590Z,45.80
2018-04-26T17:25:49.172Z,46.00
2018-04-26T17:28:15.923Z,46.00
2018-04-26T17:30:42.522Z,47.90
2018-04-26T17:33:09.118Z,45.70
2018-04-26T17:35:35.740Z,45.80
2018-04-26T17:38:03.102Z,46.20
2018-04-26T17:40:29.729Z,46.20
2018-04-26T17:42:57.142Z,46.60
2018-04-26T17:45:23.776Z,46.50
2018-04-26T17:47:50.384Z,47.00
2018-04-26T17:50:17.011Z,47.80
2018-04-26T17:52:48.457Z,49.60
2018-04-26T17:55:15.074Z,49.60
2018-04-26T17:57:41.698Z,50.40
2018-04-26T18:00:08.305Z,50.80
2018-04-26T18:02:34.855Z,49.20
2018-04-26T18:05:01.424Z,49.40
2018-04-26T18:07:29.203Z,49.10
2018-04-26T18:09:56.649Z,49.60
2018-04-26T18:12:25.973Z,50.90
2018-04-26T18:14:54.303Z,50.40
2018-04-26T18:17:20.860Z,50.30
2018-04-26T18:19:47.437Z,51.80
2018-04-26T18:22:14.116Z,52.90
2018-04-26T18:24:42.741Z,53.60
2018-04-26T18:27:10.068Z,55.40
2018-04-26T18:29:36.602Z,55.30
2018-04-26T18:32:03.142Z,55.60
2018-04-26T18:34:29.777Z,55.80
2018-04-26T18:36:56.300Z,56.70
2018-04-26T18:39:22.844Z,57.40
2018-04-26T18:41:49.488Z,56.90
2018-04-26T18:44:16.041Z,57.10
2018-04-26T18:46:42.618Z,58.50
2018-04-26T18:49:09.874Z,59.90
2018-04-26T18:51:36.488Z,59.90
2018-04-26T18:54:03.024Z,60.60
2018-04-26T18:56:29.579Z,61.30
2018-04-26T18:58:56.917Z,62.90
2018-04-26T19:01:23.497Z,62.90
2018-04-26T19:03:54.008Z,62.60
2018-04-26T19:06:21.300Z,63.60
2018-04-26T19:08:47.942Z,63.60
2018-04-26T19:11:14.525Z,64.60
2018-04-26T19:13:41.832Z,64.90
2018-04-26T19:16:08.483Z,64.90
2018-04-26T19:18:36.299Z,67.40
2018-04-26T19:21:03.938Z,69.00
2018-04-26T19:23:30.573Z,68.90
2018-04-26T19:25:57.935Z,70.50
2018-04-26T19:28:25.248Z,71.40
2018-04-26T19:30:51.781Z,71.30
2018-04-26T19:33:18.470Z,71.70
2018-04-26T19:35:45.036Z,72.30
2018-04-26T19:38:11.570Z,73.30
2018-04-26T19:40:38.179Z,74.50
2018-04-26T19:43:05.528Z,76.10
2018-04-26T19:45:32.047Z,76.10
2018-04-26T19:47:58.671Z,76.80
2018-04-26T19:50:25.231Z,77.20
2018-04-26T19:52:51.781Z,78.10
2018-04-26T19:55:18.342Z,78.80
2018-04-26T19:57:44.973Z,79.70
2018-04-26T20:00:11.600Z,80.30
2018-04-26T20:02:38.137Z,81.50
2018-04-26T20:05:05.458Z,83.50
2018-04-26T20:07:31.989Z,83.40
2018-04-26T20:09:58.669Z,83.90
2018-04-26T20:12:25.956Z,85.40
2018-04-26T20:14:52.626Z,85.30
2018-04-26T20:17:19.154Z,86.60
2018-04-26T20:19:45.725Z,86.90
2018-04-26T20:22:12.274Z,85.30
2018-04-26T20:24:38.816Z,86.80
2018-04-26T20:27:05.331Z,88.00
2018-04-26T20:29:31.876Z,88.80
2018-04-26T20:31:58.413Z,89.10
2018-04-26T20:34:25.781Z,90.10
2018-04-26T20:36:52.325Z,89.50
2018-04-26T20:39:19.620Z,90.60
2018-04-26T20:41:54.305Z,90.50
2018-04-26T20:44:33.797Z,91.20
2018-04-26T20:47:00.888Z,91.00
2018-04-26T20:49:28.341Z,91.30
2018-04-26T20:51:55.607Z,88.80
2018-04-26T20:54:22.191Z,88.80
2018-04-26T20:56:48.728Z,87.40
2018-04-26T20:59:15.287Z,85.90
2018-04-26T21:01:41.823Z,85.10
2018-04-26T21:04:12.421Z,85.40
2018-04-26T21:06:38.992Z,84.80
2018-04-26T21:09:05.530Z,86.50
2018-04-26T21:11:32.108Z,89.10
2018-04-26T21:13:58.683Z,89.50
2018-04-26T21:16:25.268Z,89.80
2018-04-26T21:18:52.537Z,89.90
2018-04-26T21:21:19.845Z,90.20
2018-04-26T21:23:46.393Z,90.20
2018-04-26T21:26:13.833Z,90.10
2018-04-26T21:28:40.472Z,90.50
2018-04-26T21:31:07.004Z,90.70
2018-04-26T21:33:33.807Z,91.00
2018-04-26T21:36:01.106Z,91.20
2018-04-26T21:38:27.617Z,91.20
2018-04-26T21:40:54.161Z,91.30
2018-04-26T21:43:26.586Z,91.00
2018-04-26T21:45:53.295Z,91.00
2018-04-26T21:48:19.930Z,90.90
2018-04-26T21:50:54.548Z,90.70
2018-04-26T21:53:27.244Z,90.00
2018-04-26T21:56:00.837Z,88.70
2018-04-26T21:58:33.314Z,88.10
2018-04-26T22:01:06.091Z,87.70
2018-04-26T22:03:38.510Z,88.00
2018-04-26T22:06:08.184Z,87.90
2018-04-26T22:08:34.731Z,87.90
2018-04-26T22:11:01.302Z,87.90
2018-04-26T22:13:28.589Z,90.00
2018-04-26T22:15:55.964Z,90.40
2018-04-26T22:18:30.545Z,90.30
2018-04-26T22:21:02.680Z,90.80
2018-04-26T22:23:29.213Z,90.80
2018-04-26T22:25:55.821Z,91.00
2018-04-26T22:31:36.865Z,91.40
2018-04-26T22:34:05.350Z,91.80
2018-04-26T22:36:32.660Z,91.90
2018-04-26T22:38:59.229Z,91.90
2018-04-26T22:41:25.769Z,92.10
2018-04-26T22:43:52.409Z,92.30
2018-04-26T22:46:18.921Z,92.50
2018-04-26T22:48:45.493Z,92.60
2018-04-26T22:51:12.089Z,92.60
2018-04-26T22:53:46.717Z,92.70
2018-04-26T22:56:35.926Z,92.80
2018-04-26T22:59:03.281Z,93.30
2018-04-26T23:01:29.815Z,93.30
2018-04-26T23:03:56.500Z,93.30
2018-04-26T23:09:20.250Z,93.70
2018-04-26T23:11:46.747Z,93.80
2018-04-26T23:14:13.292Z,93.90
2018-04-26T23:16:39.785Z,93.80
2018-04-26T23:19:09.081Z,93.90
2018-04-26T23:21:36.389Z,93.90
2018-04-26T23:24:08.070Z,93.90
2018-04-26T23:26:40.524Z,94.10
2018-04-26T23:29:07.097Z,94.30
2018-04-26T23:31:34.377Z,96.20
2018-04-26T23:34:00.920Z,96.10
2018-04-26T23:36:27.431Z,95.70
2018-04-26T23:38:53.993Z,95.00
2018-04-26T23:41:20.646Z,94.70
2018-04-26T23:43:47.288Z,94.60
2018-04-26T23:46:13.802Z,94.80
2018-04-26T23:48:40.385Z,94.60
2018-04-26T23:51:06.931Z,94.80
2018-04-26T23:53:35.261Z,95.40
2018-04-26T23:56:01.784Z,95.40
2018-04-26T23:58:28.389Z,96.50
